الصفحة الرئيسية
METAR-TAF:

METAR-TAF

مطار :

Liberia, كوستاريكا

دائرة عرض: 10-37N, خط طول: 085-26W, ارتفاع: 80 متر

مراقبة الطقس الحالي

تاريخ ووقت الإصدار 28 دقيقة قبل الساعة 12:00UTC
ريح 2 عقدة من الجنوب الشرقي
درجة الحرارة 20°درجة مئوية
الرطوبة 94%
ضغط 1011 hPa
الرؤية 10 كم أو أكثر
الغيوم لا تقل 1500 م ولا وجود لمزنة ركامية السحاب الأسود

METAR: MRLB 151200Z 13002KT CAVOK 20/19 A2985 NOSIG

زمن: 06:28 (12:28 UTC)

توقعات

تاريخ ووقت الإصدار 1ساعة و 28 دقيقة قبل الساعة 11:00UTC
التوقعات صالحة من15 الساعة 12 UTC إلى 16 الساعة 12 UTC
ريح 12 عقدة من الشرق
الرؤية 10 كم أو أكثر
غيوم قليلة على ارتفاع 4000 قدم
مؤقت
من 15 الساعة 12 UTC إلى 15 الساعة 14 UTC
ريح 2 عقدةمن اتجاهات متغيرة
مؤقت
من 15 الساعة 21 UTC إلى 15 الساعة 24 UTC
ريح 8 عقدة من الغرب
غيوم مفككة على ارتفاع 3000 قدم
من 16 الساعة 0200 UTC
ريح 2 عقدةمن اتجاهات متغيرة
الرؤية 10 كم أو أكثر
غيوم متفرقة على ارتفاع 1500 قدم

TAF: MRLB 151100Z 1512/1612 08012KT 9999 FEW040 TX33/1519Z TN21/1612Z TEMPO 1512/1514 VRB02KT TEMPO 1521/1524 27008KT BKN030 FM160200 VRB02KT 9999 SCT015

أرصاد الطقس والتوقعات من أكثر من 4000 مطار (تقارير الطقس للمطار METAR والتنبؤ بالطقس بالمطارTAF).

المحطات المتاحة هي النقط الصفراء والحمراء على الخريطة.

حرك المؤشر فوق النقطة لمعرفة اسم المحطة.

ثم انقر لمعرفة أرصاد وتوقعات الطقس.

لتغيير الخارطة: اضغط على الأزرار الخضراء مع رمز الصليب الأسود للتكبير. على الزر الأخضر مع شرطة للتصغير، أو على الأسهم الخضراء للخرائط المجاورة.


METAR-TAF: